LFRC/CER METAR and TAF weather

Enter ICAO airport designator
Station Type Date Time Source
LFRC METAR 2019/02/23 22:30 UTC NOAA

LFRC 232230Z AUTO 10003KT 8000 NSC 09/05 Q1032


Station Type Date Time Source
LFRC Decoded METAR 2019/02/23 22:30 UTC NOAA

Cherbourg / Maupertus, France (LFRC) 49-39N 001-28W 139M
Feb 23, 2019 - 05:30 PM EST / 2019.02.23 2230 UTC
Wind: from the E (100 degrees) at 3 MPH (3 KT):0
Visibility: 4 mile(s):0
Temperature: 48 F (9 C)
Dew Point: 41 F (5 C)
Relative Humidity: 75%
Pressure (altimeter): 30.47 in. Hg (1032 hPa)
ob: LFRC 232230Z AUTO 10003KT 8000 NSC 09/05 Q1032
cycle: 22

Station Type Date Time Source
LFRC TAF 2008/10/12 17:07 UTC NOAA

TAF
AMD LFRC 121707Z 121721 CNL


Example: see airport list